Bridgeport, Illinois
Current Conditions -  °F | °C
As of 5:55 PM on Sunday 23 Nov 2014 (Local Time) from KAJG Reporting Station
Heavy Rain Heavy Rain  
Wind Chill: 55°   Ceiling: 700
Heat Index: 55°   Visibility: 5mi
Dew Point: 54°   Wind: 9mph
Humidity: 94%   Direction: 110°ESE
Pressure: 29.3"   Gusts: NA
Location:  38.71°N, 87.76°W
Report Text: KAJG 232355Z AUTO 11008KT 5SM +RA SCT004 BKN007 OVC017 13/12 A2930 RMK AO2 P0035
Loading
Personal Weather Stations






























Interactive Weather Map New forecast layout! Learn more

10-Day Weather Forecast

Advertisements
Track Severe Weather on mobile